Hico, Texas
Current Conditions -  °F | °C
As of 2:15 AM on Friday 24 Oct 2014 (Local Time) from KSEP Reporting Station
Clear Clear  
Wind Chill: 61°   Ceiling: Unl
Heat Index: 61°   Visibility: 10mi
Dew Point: 56°   Wind: 3mph
Humidity: 83%   Direction: 190°S
Pressure: 30.14"   Gusts: NA
Location:  31.98°N, 98.03°W
Report Text: KSEP 240715Z AUTO 19003KT 10SM CLR 16/14 A3014 RMK AO2 T01630135
Loading
Personal Weather Stations






























Interactive Weather Map
Tropical Storm Tracking
New forecast layout! Learn more

10-Day Weather Forecast

Advertisements
Track Severe Weather on mobile